Flight Track Log - Related Links

Times and Time Zones

All times are in EDT time to prevent confusion due to time zone crossing. See the SKW5535 flight status page for this flight to view local times or setup timezone preferences in your user account.

Time Position Orientation Groundspeed Altitude Reporting Facility
EDT Latitude Longitude Course Direction KTS MPH feet Rate Location/Type
Sun 03:06:04 PM 46.8669 -114.0628 132° Southeast 192 221 5,300  Level Salt Lake Center
Sun 03:07:06 PM 46.8075 -114.0664 182° South 214 246 7,600 2,323 Climbing Salt Lake Center
Sun 03:08:08 PM 46.7397 -114.0686 181° South 225 259 10,100 2,129 Climbing Salt Lake Center
Sun 03:09:00 PM 46.4223 -113.8487 139° Southeast  Level FlightAware Approximate
Sun 03:09:10 PM 46.6753 -114.0692 180° South 236 272 12,000  Level Salt Lake Center
Sun 03:10:00 PM 46.3525 -113.7264 131° Southeast  Level FlightAware Approximate
Sun 03:10:12 PM 46.6147 -114.0056 144° Southeast 277 319 13,300  Level Salt Lake Center
Sun 03:11:00 PM 46.2864 -113.6015 132° Southeast  Level FlightAware Approximate
Sun 03:11:14 PM 46.5547 -113.9056 131° Southeast 305 351 14,900  Level Salt Lake Center
Sun 03:12:16 PM 46.4997 -113.8081 129° Southeast 312 359 16,800 1,694 Climbing Salt Lake Center
Sun 03:13:18 PM 46.4372 -113.7008 130° Southeast 323 372 18,400 1,355 Climbing Salt Lake Center
Sun 03:14:20 PM 46.3792 -113.6006 130° Southeast 328 377 19,600 829 Climbing Salt Lake Center
Sun 03:15:21 PM 46.3217 -113.5056 131° Southeast 344 396 20,100 390 Climbing Salt Lake Center
Sun 03:16:23 PM 46.2547 -113.3897 130° Southeast 377 434 20,400 726 Climbing Salt Lake Center
Sun 03:17:25 PM 46.1753 -113.2553 130° Southeast 392 451 21,600 968 Climbing Salt Lake Center
Sun 03:18:27 PM 46.0958 -113.1242 131° Southeast 401 461 22,400 774 Climbing Salt Lake Center
Sun 03:19:29 PM 46.0222 -113.0011 131° Southeast 406 467 23,200 774 Climbing Salt Lake Center
Sun 03:20:31 PM 45.9406 -112.8622 130° Southeast 410 472 24,000 677 Climbing Salt Lake Center
Sun 03:21:33 PM 45.8683 -112.7425 131° Southeast 412 474 24,600 576 Climbing Salt Lake Center
Sun 03:22:36 PM 45.7831 -112.6017 131° Southeast 417 480 25,200 528 Climbing Salt Lake Center
Sun 03:23:38 PM 45.7097 -112.4794 131° Southeast 421 484 25,700 629 Climbing Salt Lake Center
Sun 03:24:40 PM 45.6228 -112.3394 132° Southeast 422 486 26,500 629 Climbing Salt Lake Center
Sun 03:25:42 PM 45.5492 -112.2181 131° Southeast 422 486 27,000 532 Climbing Salt Lake Center
Sun 03:26:44 PM 45.4753 -112.0972 131° Southeast 422 486 27,600 629 Climbing Salt Lake Center
Sun 03:27:46 PM 45.3892 -111.9606 132° Southeast 417 480 28,300 532 Climbing Salt Lake Center
Sun 03:28:48 PM 45.3150 -111.8403 131° Southeast 421 484 28,700 532 Climbing Salt Lake Center
Sun 03:29:50 PM 45.2275 -111.7003 132° Southeast 422 486 29,400 629 Climbing Salt Lake Center
Sun 03:30:52 PM 45.1536 -111.5833 132° Southeast 419 482 30,000 581 Climbing Salt Lake Center
Sun 03:31:54 PM 45.0675 -111.4481 132° Southeast 414 476 30,600 532 Climbing Salt Lake Center
Sun 03:32:56 PM 44.9942 -111.3306 131° Southeast 414 476 31,100 581 Climbing Salt Lake Center
Sun 03:33:58 PM 44.9075 -111.1953 132° Southeast 414 476 31,800 532 Climbing Salt Lake Center
Sun 03:35:00 PM 44.8342 -111.0800 132° Southeast 411 473 32,200 484 Climbing Salt Lake Center
Sun 03:36:02 PM 44.7606 -110.9644 132° Southeast 410 472 32,800 387 Climbing Salt Lake Center
Sun 03:37:04 PM 44.6758 -110.8336 132° Southeast 404 465 33,000 97 Climbing Salt Lake Center
Sun 03:38:06 PM 44.6017 -110.7194 132° Southeast 408 470 33,000  Level Salt Lake Center
Sun 03:39:08 PM 44.5131 -110.5831 132° Southeast 418 481 33,000  Level Salt Lake Center
Sun 03:40:10 PM 44.4367 -110.4653 132° Southeast 425 489 33,000  Level Salt Lake Center
Sun 03:41:12 PM 44.3469 -110.3267 132° Southeast 428 493 33,000  Level Salt Lake Center
Sun 03:42:14 PM 44.2692 -110.2097 133° Southeast 430 495 33,000  Level Salt Lake Center
Sun 03:43:16 PM 44.1786 -110.0719 132° Southeast 431 496 33,000  Level Salt Lake Center
Sun 03:44:18 PM 44.0994 -109.9558 133° Southeast 431 496 33,000  Level Salt Lake Center
Sun 03:45:20 PM 44.0136 -109.8589 141° Southeast 416 479 33,000  Level Salt Lake Center
Sun 03:46:22 PM 43.8964 -109.7850 156° South 412 474 33,000  Level Salt Lake Center
Sun 03:47:24 PM 43.7969 -109.7236 156° South 409 471 33,000  Level Salt Lake Center
Sun 03:48:26 PM 43.6797 -109.6508 156° South 412 474 33,000  Level Salt Lake Center
Sun 03:49:28 PM 43.5800 -109.5867 155° Southeast 412 474 33,000  Level Salt Lake Center
Sun 03:50:30 PM 43.4722 -109.5192 156° South 415 478 33,000  Level Salt Lake Center
Sun 03:51:32 PM 43.3681 -109.4553 156° South 413 475 33,000  Level Salt Lake Center
Sun 03:52:34 PM 43.2642 -109.3897 155° Southeast 412 474 33,000  Level Salt Lake Center
Sun 03:53:36 PM 43.1394 -109.3111 155° Southeast 411 473 33,000  Level Salt Lake Center
Sun 03:54:38 PM 43.0358 -109.2464 155° Southeast 411 473 33,000  Level Salt Lake Center
Sun 03:55:40 PM 42.9250 -109.1781 156° South 405 466 33,000  Level Salt Lake Center
Sun 03:56:42 PM 42.8269 -109.1172 156° South 405 466 33,000  Level Salt Lake Center
Sun 03:57:44 PM 42.7275 -109.0569 156° South 406 467 33,000  Level Salt Lake Center
Sun 03:58:46 PM 42.6108 -108.9853 156° South 411 473 33,000 -390 Level Salt Lake Center
Sun 03:59:47 PM 42.5097 -108.9233 156° South 414 476 32,200 -780 Descending Salt Lake Center
Sun 04:00:49 PM 42.3858 -108.8486 156° South 432 497 31,400 -581 Descending Salt Lake Center
Sun 04:01:51 PM 42.2803 -108.7831 155° Southeast 436 502 31,000 -194 Descending Salt Lake Center
Sun 04:02:53 PM 42.1594 -108.7083 155° Southeast 430 495 31,000  Level Salt Lake Center
Sun 04:03:55 PM 42.0567 -108.6469 156° South 425 489 31,000  Level Salt Lake Center
Sun 04:04:57 PM 41.9364 -108.5753 156° South 422 486 31,000  Level Salt Lake Center
Sun 04:05:59 PM 41.8328 -108.5117 155° Southeast 424 488 31,000  Level Salt Lake Center
Sun 04:07:01 PM 41.7314 -108.4522 156° South 417 480 31,000  Level Salt Lake Center
Sun 04:08:12 PM 41.5958 -108.3703 156° South 416 479 31,000  Level Denver Center
Sun 04:09:14 PM 41.4950 -108.3108 156° South 414 476 31,000  Level Denver Center
Sun 04:10:16 PM 41.3769 -108.2419 156° South 414 476 31,000  Level Denver Center
Sun 04:11:18 PM 41.3011 -108.1306 132° Southeast 434 499 31,000  Level Denver Center
Sun 04:12:20 PM 41.2425 -107.9681 116° Southeast 438 504 31,000  Level Denver Center
Sun 04:13:22 PM 41.1917 -107.8278 116° Southeast 440 506 31,000  Level Denver Center
Sun 04:14:24 PM 41.1333 -107.6633 115° Southeast 440 506 31,000  Level Denver Center
Sun 04:15:26 PM 41.0831 -107.5244 116° Southeast 438 504 31,000  Level Denver Center
Sun 04:16:28 PM 41.0314 -107.3844 116° Southeast 441 507 31,000  Level Denver Center
Sun 04:17:30 PM 40.9725 -107.2214 116° Southeast 440 506 31,000  Level Denver Center
Sun 04:18:32 PM 40.9219 -107.0817 116° Southeast 440 506 31,000  Level Denver Center
Sun 04:19:34 PM 40.8608 -106.9186 116° Southeast 442 509 31,000  Level Denver Center
Sun 04:20:36 PM 40.8100 -106.7786 116° Southeast 442 509 31,000  Level Denver Center
Sun 04:21:38 PM 40.7494 -106.6156 116° Southeast 445 512 31,000 -339 Level Denver Center
Sun 04:22:40 PM 40.6953 -106.4750 117° Southeast 447 514 30,300 -1,016 Descending Denver Center
Sun 04:23:42 PM 40.6319 -106.3050 116° Southeast 457 526 28,900 -1,355 Descending Denver Center
Sun 04:24:44 PM 40.5756 -106.1525 116° Southeast 472 543 27,500 -1,452 Descending Denver Center
Sun 04:25:46 PM 40.5147 -105.9956 117° Southeast 479 551 25,900 -1,500 Descending Denver Center
Sun 04:26:48 PM 40.4594 -105.8525 117° Southeast 446 513 24,400 -1,355 Descending Denver Center
Sun 04:27:50 PM 40.4100 -105.7206 116° Southeast 410 472 23,100 -1,258 Descending Denver Center
Sun 04:28:52 PM 40.3756 -105.5583 106° East 386 444 21,800 -774 Descending Denver Center
Sun 04:29:54 PM 40.3497 -105.4286 105° East 382 440 21,500 -1,210 Descending Denver Center
Sun 04:30:56 PM 40.2742 -105.3083 129° Southeast 402 463 19,300 -2,081 Descending Denver Center
Sun 04:31:58 PM 40.1983 -105.1897 130° Southeast 425 489 17,200 -2,129 Descending Denver Center
Sun 04:33:00 PM 40.1236 -105.0733 130° Southeast 419 482 14,900 -2,032 Descending Denver Center
Sun 04:34:02 PM 40.0456 -104.9522 130° Southeast 407 468 13,000 -1,210 Descending Denver Center
Sun 04:35:04 PM 39.9769 -104.8458 130° Southeast 387 445 12,400 -976 Descending Denver Center
Sun 04:36:05 PM 39.8850 -104.8075 162° South 330 380 11,000 -683 Descending Denver Center
Sun 04:37:07 PM 39.8100 -104.8089 181° South 264 304 11,000 -581 Level Denver Center
Sun 04:38:09 PM 39.7386 -104.8100 181° South 242 278 9,800 -823 Descending Denver Center
Sun 04:39:11 PM 39.7125 -104.7375 115° Southeast 251 289 9,300 -968 Descending Denver Center
Sun 04:40:13 PM 39.7547 -104.6853 44° Northeast 225 259 7,800 -1,452 Descending Denver Center
Sun 04:41:15 PM 39.8114 -104.6881 358° North 195 224 6,300 -1,113 Descending Denver Center
Sun 04:42:17 PM 39.8594 -104.6875 North 166 191 5,500 -774 Descending Denver Center

Login

Don't have an account? Register now (free) for customized features, flight alerts, and more!